Time;durP1;ratioP1;P1;durP2;ratioP2;P2;SDS_P1;SDS_P2;PMS_P1;PMS_P2;Temp;Humidity;BMP_temperature;BMP_pressure;BME280_temperature;BME280_humidity;BME280_pressure;Samples;Min_cycle;Max_cycle;Signal;HPM_P1;HPM_P2
2024/03/11 00:00:55;;;;;;;4.60;1.40;;;;;;;-2.17;66.07;101224.90;86884;281;135558;-65
2024/03/11 00:02:56;;;;;;;0.90;0.70;;;;;;;-2.19;66.21;101226.57;87020;273;26019;-65
2024/03/11 00:04:58;;;;;;;2.70;1.30;;;;;;;-2.21;66.19;101225.95;86930;269;135912;-67
2024/03/11 00:07:01;;;;;;;2.30;1.70;;;;;;;-2.23;66.29;101228.19;87473;277;25082;-66
2024/03/11 00:09:15;;;;;;;1.90;1.00;;;;;;;-2.24;66.50;101226.46;87265;275;135984;-69
2024/03/11 00:11:18;;;;;;;2.00;1.30;;;;;;;-2.25;66.48;101228.98;87323;279;24144;-69
2024/03/11 00:13:22;;;;;;;2.90;1.00;;;;;;;-2.27;66.67;101229.77;87091;272;136145;-65
2024/03/11 00:15:24;;;;;;;2.90;1.20;;;;;;;-2.28;66.62;101232.11;87320;273;22579;-67
2024/03/11 00:17:26;;;;;;;1.60;1.00;;;;;;;-2.29;66.94;101232.17;86952;269;135895;-67
2024/03/11 00:19:29;;;;;;;2.00;1.50;;;;;;;-2.30;67.00;101239.72;87229;273;23599;-66
2024/03/11 00:21:31;;;;;;;1.70;0.80;;;;;;;-2.32;67.22;101243.99;87105;272;135950;-67
2024/03/11 00:23:33;;;;;;;2.10;1.10;;;;;;;-2.32;67.30;101245.89;87209;273;22554;-68
2024/03/11 00:25:36;;;;;;;2.70;1.20;;;;;;;-2.33;67.13;101249.10;87004;280;135988;-65
2024/03/11 00:27:38;;;;;;;1.50;1.40;;;;;;;-2.33;67.20;101253.08;87085;270;24219;-66
2024/03/11 00:29:40;;;;;;;2.40;1.00;;;;;;;-2.36;67.33;101255.48;87098;273;135818;-65
2024/03/11 00:31:42;;;;;;;0.90;0.80;;;;;;;-2.36;67.49;101257.42;87021;281;22562;-67
2024/03/11 00:33:45;;;;;;;1.10;1.10;;;;;;;-2.37;67.70;101263.96;87223;277;135859;-67
2024/03/11 00:35:46;;;;;;;3.60;1.40;;;;;;;-2.39;67.68;101260.21;87509;270;22556;-66
2024/03/11 00:37:48;;;;;;;5.00;1.40;;;;;;;-2.40;67.93;101263.38;86961;274;135694;-67
2024/03/11 00:39:51;;;;;;;1.50;1.20;;;;;;;-2.42;68.07;101262.96;87100;274;24017;-67
2024/03/11 00:41:53;;;;;;;4.80;1.20;;;;;;;-2.43;68.37;101265.45;87046;277;136379;-64
2024/03/11 00:43:55;;;;;;;2.20;1.10;;;;;;;-2.44;68.45;101265.88;87030;273;22574;-67
2024/03/11 00:45:57;;;;;;;2.90;1.50;;;;;;;-2.45;68.67;101268.38;87015;273;135693;-66
2024/03/11 00:47:59;;;;;;;2.40;0.60;;;;;;;-2.46;68.67;101271.02;87011;265;22740;-65
2024/03/11 00:50:06;;;;;;;1.50;1.00;;;;;;;-2.46;68.96;101270.17;87298;269;135757;-66
2024/03/11 00:52:09;;;;;;;2.60;1.00;;;;;;;-2.46;69.03;101268.07;87290;270;136235;-65
2024/03/11 00:54:11;;;;;;;1.80;1.00;;;;;;;-2.46;69.31;101276.95;87382;275;24045;-67
2024/03/11 00:56:13;;;;;;;2.40;1.20;;;;;;;-2.48;69.38;101280.02;87117;270;136031;-66
2024/03/11 00:58:17;;;;;;;3.80;1.10;;;;;;;-2.50;69.70;101284.80;87251;270;23501;-66
2024/03/11 01:00:22;;;;;;;2.60;1.20;;;;;;;-2.51;69.74;101281.39;87291;267;136123;-67
2024/03/11 01:02:24;;;;;;;1.20;1.10;;;;;;;-2.52;69.98;101289.45;87309;271;25135;-65
2024/03/11 01:04:27;;;;;;;1.50;0.90;;;;;;;-2.52;70.04;101295.36;87434;275;136498;-65
2024/03/11 01:06:29;;;;;;;1.80;1.10;;;;;;;-2.53;70.34;101290.70;87447;275;22584;-66
2024/03/11 01:08:32;;;;;;;2.00;1.10;;;;;;;-2.54;70.31;101289.19;87227;275;136055;-66
2024/03/11 01:10:35;;;;;;;6.00;1.40;;;;;;;-2.56;70.60;101293.97;87265;268;25092;-67
2024/03/11 01:12:36;;;;;;;1.40;1.00;;;;;;;-2.57;70.85;101292.46;87155;269;135924;-67
2024/03/11 01:14:39;;;;;;;1.60;0.90;;;;;;;-2.59;70.97;101289.44;87340;269;25192;-67
2024/03/11 01:16:41;;;;;;;0.60;0.50;;;;;;;-2.60;71.27;101292.83;87291;274;135729;-66
2024/03/11 01:18:45;;;;;;;3.20;1.10;;;;;;;-2.63;71.40;101290.88;88190;267;24031;-64
2024/03/11 01:20:49;;;;;;;2.30;1.00;;;;;;;-2.64;71.54;101294.42;87191;276;136257;-66
2024/03/11 01:22:53;;;;;;;0.70;0.70;;;;;;;-2.65;71.64;101294.14;87489;271;22581;-66
2024/03/11 01:24:54;;;;;;;3.30;0.90;;;;;;;-2.65;71.81;101296.55;87234;271;137476;-66
2024/03/11 01:27:10;;;;;;;1.50;0.70;;;;;;;-2.65;71.80;101298.48;87324;274;24049;-66
2024/03/11 01:29:12;;;;;;;0.90;0.80;;;;;;;-2.63;71.94;101300.60;87114;271;137632;-64
2024/03/11 01:31:14;;;;;;;3.40;0.90;;;;;;;-2.62;72.35;101302.30;87189;269;25300;-64
2024/03/11 01:33:18;;;;;;;5.30;1.10;;;;;;;-2.61;72.11;101304.02;87175;268;135894;-67
2024/03/11 01:35:21;;;;;;;2.10;1.00;;;;;;;-2.62;72.27;101302.14;87353;279;25111;-66
2024/03/11 01:37:23;;;;;;;2.80;0.70;;;;;;;-2.64;72.53;101304.14;87360;272;136041;-64
2024/03/11 01:39:42;;;;;;;1.40;1.00;;;;;;;-2.66;72.98;101307.40;87345;271;24007;-63
2024/03/11 01:41:45;;;;;;;1.80;1.20;;;;;;;-2.70;73.35;101307.77;87264;274;137391;-63
2024/03/11 01:43:47;;;;;;;2.00;0.90;;;;;;;-2.74;73.67;101314.73;87436;267;24066;-66
2024/03/11 01:45:49;;;;;;;3.20;1.00;;;;;;;-2.78;73.93;101318.42;86943;268;135595;-63
2024/03/11 01:47:52;;;;;;;1.80;1.30;;;;;;;-2.80;74.36;101318.17;87463;274;22550;-66
2024/03/11 01:49:59;;;;;;;3.70;1.00;;;;;;;-2.76;74.47;101324.59;87226;270;136221;-64
2024/03/11 01:52:02;;;;;;;1.60;1.20;;;;;;;-2.71;74.56;101327.84;87494;271;25233;-65
2024/03/11 01:54:05;;;;;;;1.30;1.00;;;;;;;-2.71;74.81;101326.09;87377;274;22557;-65
2024/03/11 01:56:06;;;;;;;1.40;0.80;;;;;;;-2.72;74.96;101328.39;87187;271;136162;-65
2024/03/11 01:58:09;;;;;;;1.30;1.00;;;;;;;-2.76;75.34;101327.05;87280;279;23341;-64
2024/03/11 02:00:12;;;;;;;2.90;1.40;;;;;;;-2.81;75.60;101325.89;86933;265;135866;-65
2024/03/11 02:02:14;;;;;;;2.70;1.10;;;;;;;-2.82;75.71;101329.08;87292;271;24144;-65
2024/03/11 02:04:16;;;;;;;2.40;1.40;;;;;;;-2.83;76.00;101332.45;87328;278;137569;-65
2024/03/11 02:06:19;;;;;;;1.20;0.90;;;;;;;-2.85;76.13;101336.57;87177;275;22605;-63
2024/03/11 02:08:23;;;;;;;2.80;1.00;;;;;;;-2.88;76.46;101334.78;87177;267;136026;-65
2024/03/11 02:10:27;;;;;;;2.40;1.50;;;;;;;-2.89;76.53;101330.52;87369;271;24243;-66
2024/03/11 02:12:29;;;;;;;1.30;1.20;;;;;;;-2.91;76.76;101334.59;87244;271;136305;-67
2024/03/11 02:14:33;;;;;;;2.10;1.10;;;;;;;-2.94;77.04;101334.73;87342;263;22571;-65
2024/03/11 02:16:36;;;;;;;3.70;1.20;;;;;;;-2.96;77.23;101333.25;87321;271;135683;-65
2024/03/11 02:18:39;;;;;;;1.40;1.10;;;;;;;-2.98;77.28;101337.33;88037;272;25166;-66
2024/03/11 02:20:41;;;;;;;1.90;1.00;;;;;;;-2.99;77.42;101337.25;87226;271;135841;-64
2024/03/11 02:22:45;;;;;;;2.00;1.00;;;;;;;-3.00;77.59;101340.75;87283;271;22539;-65
2024/03/11 02:24:47;;;;;;;5.40;2.40;;;;;;;-3.01;77.84;101339.94;87357;263;136328;-67
2024/03/11 02:26:49;;;;;;;1.90;1.00;;;;;;;-3.00;78.14;101336.79;87344;271;22568;-65
2024/03/11 02:28:51;;;;;;;2.10;1.70;;;;;;;-3.01;78.17;101338.23;87211;266;137464;-65
2024/03/11 02:30:53;;;;;;;3.10;0.70;;;;;;;-2.97;78.17;101342.54;87251;271;25188;-64
2024/03/11 02:32:56;;;;;;;1.90;1.80;;;;;;;-2.90;78.03;101346.70;87196;271;137004;-64
2024/03/11 02:34:58;;;;;;;3.60;1.10;;;;;;;-2.85;77.97;101352.17;87186;271;22670;-65
2024/03/11 02:37:01;;;;;;;4.80;0.90;;;;;;;-2.81;78.20;101348.71;87226;267;138188;-65
2024/03/11 02:39:07;;;;;;;1.30;0.90;;;;;;;-2.83;78.19;101345.48;87230;271;22568;-65
2024/03/11 02:41:11;;;;;;;1.60;1.10;;;;;;;-2.86;78.58;101350.88;87344;275;136005;-65
2024/03/11 02:43:16;;;;;;;1.20;0.90;;;;;;;-2.88;78.88;101347.66;87156;279;22758;-65
2024/03/11 02:45:19;;;;;;;1.50;1.20;;;;;;;-2.91;78.97;101350.92;87145;271;135871;-67
2024/03/11 02:47:23;;;;;;;1.10;0.90;;;;;;;-2.93;79.11;101353.12;87505;267;25240;-65
2024/03/11 02:49:27;;;;;;;2.20;1.40;;;;;;;-2.96;79.13;101355.16;87106;271;137309;-69
2024/03/11 02:51:30;;;;;;;1.60;1.30;;;;;;;-3.00;79.41;101356.73;87293;278;25198;-65
2024/03/11 02:53:33;;;;;;;1.50;0.90;;;;;;;-3.03;79.72;101358.65;87209;275;136011;-64
2024/03/11 02:55:38;;;;;;;1.20;1.20;;;;;;;-3.06;80.05;101360.89;87102;280;25252;-64
2024/03/11 02:57:42;;;;;;;;;;;;;;;-3.10;80.38;101363.33;87458;267;136129;-66
2024/03/11 02:59:44;;;;;;;3.50;1.20;;;;;;;-3.14;80.59;101363.90;87222;271;25281;-65
2024/03/11 03:01:46;;;;;;;3.40;1.20;;;;;;;-3.19;80.93;101364.48;87243;267;138080;-63
2024/03/11 03:03:50;;;;;;;4.70;2.00;;;;;;;-3.23;81.23;101365.36;87237;275;24051;-66
2024/03/11 03:05:51;;;;;;;2.60;1.30;;;;;;;-3.23;81.49;101369.38;87037;272;139147;-64
2024/03/11 03:07:53;;;;;;;3.60;1.60;;;;;;;-3.21;81.67;101368.92;87119;275;22563;-67
2024/03/11 03:09:55;;;;;;;3.70;2.20;;;;;;;-3.20;81.87;101369.20;87106;267;136962;-65
2024/03/11 03:11:58;;;;;;;3.10;1.40;;;;;;;-3.21;82.10;101365.63;87369;278;24126;-66
2024/03/11 03:14:00;;;;;;;4.00;1.50;;;;;;;-3.20;82.49;101366.25;87296;270;135943;-66
2024/03/11 03:16:03;;;;;;;3.70;1.60;;;;;;;-3.22;82.75;101365.48;87275;270;25216;-65
2024/03/11 03:18:05;;;;;;;3.10;2.00;;;;;;;-3.28;83.24;101360.21;87284;272;24073;-64
2024/03/11 03:20:10;;;;;;;3.90;2.30;;;;;;;-3.33;83.55;101362.67;87357;280;136370;-65
2024/03/11 03:22:12;;;;;;;4.70;1.90;;;;;;;-3.37;83.99;101362.05;87271;263;25129;-64
2024/03/11 03:24:14;;;;;;;2.80;1.60;;;;;;;-3.42;84.28;101358.44;86936;270;136535;-63
2024/03/11 03:26:16;;;;;;;2.20;1.30;;;;;;;-3.45;84.61;101367.63;87280;271;25223;-63
2024/03/11 03:28:19;;;;;;;3.30;1.60;;;;;;;-3.49;84.89;101365.57;87256;271;136545;-67
2024/03/11 03:30:22;;;;;;;1.70;1.30;;;;;;;-3.53;85.07;101365.39;87193;266;22571;-66
2024/03/11 03:32:24;;;;;;;3.10;1.90;;;;;;;-3.56;85.61;101365.71;87171;274;136206;-65
2024/03/11 03:34:26;;;;;;;1.80;1.30;;;;;;;-3.55;85.69;101365.52;87334;271;24225;-66
2024/03/11 03:36:28;;;;;;;2.70;1.40;;;;;;;-3.55;86.09;101367.03;87180;271;137245;-65
2024/03/11 03:38:32;;;;;;;1.30;1.10;;;;;;;-3.53;86.33;101365.77;87230;267;25213;-65
2024/03/11 03:40:36;;;;;;;2.70;1.40;;;;;;;-3.52;86.39;101369.89;87087;271;136781;-66
2024/03/11 03:42:38;;;;;;;2.80;2.20;;;;;;;-3.49;86.51;101373.57;87234;271;22589;-66
2024/03/11 03:44:40;;;;;;;3.00;2.30;;;;;;;-3.46;86.81;101372.55;87120;267;136592;-65
2024/03/11 03:46:43;;;;;;;2.20;1.90;;;;;;;-3.47;86.88;101372.08;87366;275;25258;-64
2024/03/11 03:48:46;;;;;;;2.80;2.00;;;;;;;-3.51;87.06;101376.58;87101;272;135994;-66
2024/03/11 03:50:48;;;;;;;2.10;1.90;;;;;;;-3.54;87.21;101377.27;87226;271;22577;-65
2024/03/11 03:52:50;;;;;;;2.20;1.90;;;;;;;-3.56;87.65;101375.96;87089;279;136523;-66
2024/03/11 03:54:52;;;;;;;4.50;2.10;;;;;;;-3.58;88.05;101375.20;87139;276;22567;-64
2024/03/11 03:56:54;;;;;;;3.10;2.00;;;;;;;-3.61;88.22;101374.27;87132;271;136448;-68
2024/03/11 03:58:57;;;;;;;4.20;1.10;;;;;;;-3.64;88.67;101374.24;87284;267;22651;-66
2024/03/11 04:00:59;;;;;;;2.90;1.80;;;;;;;-3.67;89.07;101369.70;86998;267;136202;-63
2024/03/11 04:03:04;;;;;;;4.50;1.70;;;;;;;-3.71;89.00;101373.88;87266;271;26191;-65
2024/03/11 04:05:07;;;;;;;1.60;1.50;;;;;;;-3.70;88.97;101376.79;87009;279;137975;-64
2024/03/11 04:07:08;;;;;;;3.50;1.80;;;;;;;-3.68;88.99;101379.48;87349;271;24410;-65
2024/03/11 04:09:14;;;;;;;5.00;1.60;;;;;;;-3.66;89.17;101380.44;87132;267;137099;-67
2024/03/11 04:11:16;;;;;;;4.30;0.90;;;;;;;-3.64;89.09;101380.16;87299;267;24132;-68
2024/03/11 04:13:19;;;;;;;4.10;1.20;;;;;;;-3.64;89.23;101378.10;87262;274;137142;-67
2024/03/11 04:15:21;;;;;;;2.10;1.10;;;;;;;-3.64;89.45;101378.92;87333;267;24066;-69
2024/03/11 04:17:23;;;;;;;2.40;1.60;;;;;;;-3.61;89.56;101385.75;87182;278;136960;-65
2024/03/11 04:19:25;;;;;;;3.70;2.20;;;;;;;-3.59;89.67;101379.73;87212;279;22575;-65
2024/03/11 04:21:28;;;;;;;2.20;1.40;;;;;;;-3.57;89.63;101385.23;87054;272;135846;-66
2024/03/11 04:23:30;;;;;;;4.20;1.40;;;;;;;-3.59;90.04;101388.95;87267;267;22577;-66
2024/03/11 04:25:32;;;;;;;3.80;2.60;;;;;;;-3.62;90.31;101390.13;87169;279;137236;-66
2024/03/11 04:27:34;;;;;;;4.60;1.90;;;;;;;-3.64;90.71;101396.84;87357;268;25140;-68
2024/03/11 04:29:36;;;;;;;3.80;2.30;;;;;;;-3.67;90.92;101400.30;87255;275;136463;-68
2024/03/11 04:31:41;;;;;;;4.10;2.10;;;;;;;-3.69;91.26;101401.44;87295;275;24165;-65
2024/03/11 04:33:43;;;;;;;;;;;;;;;-3.71;91.79;101406.00;87199;275;137783;-66
2024/03/11 04:35:46;;;;;;;4.90;2.20;;;;;;;-3.67;91.87;101403.95;87327;272;22716;-66
2024/03/11 04:37:48;;;;;;;1.70;1.60;;;;;;;-3.60;92.00;101403.96;87317;271;136967;-65
2024/03/11 04:39:50;;;;;;;3.50;2.40;;;;;;;-3.53;91.71;101407.27;87302;268;22765;-66
2024/03/11 04:41:52;;;;;;;3.70;1.60;;;;;;;-3.45;92.08;101411.26;87244;271;138225;-65
2024/03/11 04:43:54;;;;;;;3.70;1.40;;;;;;;-3.21;93.18;101414.80;87316;268;25249;-67
2024/03/11 04:45:56;;;;;;;3.40;2.00;;;;;;;-2.74;93.13;101412.38;87245;271;136571;-64
2024/03/11 04:48:00;;;;;;;5.90;1.90;;;;;;;-2.19;91.31;101416.73;87348;271;24062;-66
2024/03/11 04:50:03;;;;;;;5.90;2.50;;;;;;;-1.59;89.35;101411.45;87335;270;22590;-67
2024/03/11 04:52:05;;;;;;;2.40;1.60;;;;;;;-0.94;86.27;101412.73;87183;267;136191;-67
2024/03/11 04:54:08;;;;;;;3.30;2.40;;;;;;;-0.30;82.65;101409.88;87122;272;22632;-67
2024/03/11 04:56:10;;;;;;;3.50;2.60;;;;;;;0.30;78.94;101409.05;87004;271;136428;-69
2024/03/11 04:58:12;;;;;;;3.40;1.90;;;;;;;0.79;72.83;101408.39;87279;270;22970;-65
2024/03/11 05:00:15;;;;;;;4.60;2.30;;;;;;;1.16;72.22;101406.68;87170;273;136253;-66
2024/03/11 05:02:17;;;;;;;5.40;2.60;;;;;;;1.61;69.14;101412.61;87486;271;25146;-65
2024/03/11 05:04:19;;;;;;;2.60;1.90;;;;;;;2.09;67.72;101410.95;87207;278;136297;-66
2024/03/11 05:06:20;;;;;;;3.10;2.90;;;;;;;2.55;65.61;101411.75;87216;273;22742;-69
2024/03/11 05:08:22;;;;;;;3.20;2.60;;;;;;;3.01;63.83;101413.48;87124;268;137637;-66
2024/03/11 05:10:26;;;;;;;4.30;2.60;;;;;;;3.45;61.21;101412.84;87328;270;25175;-65
2024/03/11 05:12:28;;;;;;;4.70;2.50;;;;;;;3.75;57.06;101412.71;87175;274;136691;-66
2024/03/11 05:14:33;;;;;;;4.60;2.80;;;;;;;3.85;56.77;101417.56;87315;275;23632;-67
2024/03/11 05:16:36;;;;;;;4.30;2.10;;;;;;;4.05;56.06;101421.09;87183;271;135845;-69
2024/03/11 05:18:37;;;;;;;4.00;2.20;;;;;;;4.30;55.17;101419.04;87144;279;23893;-67
2024/03/11 05:20:39;;;;;;;4.40;2.80;;;;;;;4.60;54.11;101422.23;87137;271;135864;-66
2024/03/11 05:22:44;;;;;;;3.30;2.10;;;;;;;4.91;53.23;101421.59;87287;275;22567;-66
2024/03/11 05:24:46;;;;;;;3.40;2.10;;;;;;;5.20;51.96;101426.96;87217;271;136433;-66
2024/03/11 05:26:50;;;;;;;5.30;1.80;;;;;;;5.46;51.14;101425.48;87339;267;22655;-68
2024/03/11 05:28:53;;;;;;;3.20;2.20;;;;;;;5.71;49.62;101429.95;87256;274;136358;-71
2024/03/11 05:30:54;;;;;;;2.90;1.60;;;;;;;5.74;47.80;101430.48;87449;278;25110;-71
2024/03/11 05:32:57;;;;;;;1.80;1.20;;;;;;;5.66;48.84;101429.61;87122;270;135926;-71
2024/03/11 05:35:00;;;;;;;4.10;1.70;;;;;;;5.84;48.70;101435.65;87124;272;22640;-71
2024/03/11 05:37:06;;;;;;;4.00;1.70;;;;;;;6.18;47.97;101435.66;87063;275;136786;-72
2024/03/11 05:39:09;;;;;;;;;;;;;;;6.43;47.12;101435.23;87390;269;25063;-70
2024/03/11 05:41:11;;;;;;;1.80;1.10;;;;;;;6.69;46.04;101438.23;87500;279;122361;-71
2024/03/11 05:43:14;;;;;;;2.00;1.70;;;;;;;6.87;44.75;101446.55;87237;275;22593;-71
2024/03/11 05:45:16;;;;;;;3.50;1.70;;;;;;;6.81;44.02;101443.05;87224;272;135953;-70
2024/03/11 05:47:20;;;;;;;2.70;1.60;;;;;;;6.57;43.89;101442.66;87377;277;22559;-69
2024/03/11 05:49:22;;;;;;;3.50;2.20;;;;;;;6.49;43.54;101462.97;87166;274;137178;-72
2024/03/11 05:51:27;;;;;;;1.90;1.70;;;;;;;6.37;43.21;101445.66;87341;272;22737;-71
2024/03/11 05:53:30;;;;;;;3.50;2.40;;;;;;;6.00;43.66;101446.36;87160;274;135871;-74
2024/03/11 05:55:36;;;;;;;6.70;3.40;;;;;;;5.51;44.28;101453.61;87145;279;22951;-72
2024/03/11 05:57:38;;;;;;;8.50;2.90;;;;;;;5.25;45.42;101453.12;86942;271;136221;-70
2024/03/11 05:59:40;;;;;;;5.50;3.10;;;;;;;5.41;45.59;101461.48;87413;271;23997;-68
2024/03/11 06:01:43;;;;;;;5.90;4.50;;;;;;;5.68;44.42;101460.50;87229;279;136138;-73
2024/03/11 06:03:49;;;;;;;5.90;4.40;;;;;;;5.82;44.45;101460.40;87332;271;24618;-72
2024/03/11 06:05:51;;;;;;;8.10;4.80;;;;;;;5.74;43.25;101470.05;87202;275;135613;-70
2024/03/11 06:07:54;;;;;;;11.40;3.70;;;;;;;5.70;44.05;101466.52;87419;267;22551;-70
2024/03/11 06:09:55;;;;;;;2.60;2.30;;;;;;;5.91;43.18;101469.14;87030;279;135353;-71
2024/03/11 06:11:59;;;;;;;4.00;2.20;;;;;;;6.20;42.76;101468.83;87317;278;24135;-69
2024/03/11 06:14:01;;;;;;;6.90;4.30;;;;;;;6.44;41.87;101468.18;87259;274;136882;-73
2024/03/11 06:16:07;;;;;;;6.10;3.40;;;;;;;6.22;41.42;101471.08;87101;267;137824;-70
2024/03/11 06:18:10;;;;;;;5.40;2.60;;;;;;;5.88;42.23;101471.65;87359;269;25213;-71
2024/03/11 06:20:13;;;;;;;4.50;3.50;;;;;;;5.69;42.51;101473.12;87166;270;136155;-69
2024/03/11 06:22:16;;;;;;;5.90;3.40;;;;;;;5.54;43.21;101480.33;87343;271;22632;-71
2024/03/11 06:24:22;;;;;;;9.20;3.90;;;;;;;5.79;43.06;101478.39;87068;271;135860;-69
2024/03/11 06:26:24;;;;;;;4.60;2.70;;;;;;;6.17;42.56;101477.38;87018;273;22597;-68
2024/03/11 06:28:27;;;;;;;4.40;3.30;;;;;;;6.56;42.31;101482.29;87044;267;136204;-71
2024/03/11 06:30:29;;;;;;;3.30;2.50;;;;;;;6.93;41.21;101481.36;87025;271;22557;-70
2024/03/11 06:32:32;;;;;;;8.20;4.30;;;;;;;6.85;40.05;101492.69;86989;267;135844;-70
2024/03/11 06:34:34;;;;;;;9.50;5.20;;;;;;;6.25;40.67;101487.09;87217;272;26204;-72
2024/03/11 06:36:37;;;;;;;6.50;4.30;;;;;;;5.85;41.92;101488.52;87269;275;136283;-71
2024/03/11 06:38:38;;;;;;;5.50;4.50;;;;;;;5.80;42.19;101492.67;87176;271;22594;-70
2024/03/11 06:40:40;;;;;;;9.50;4.40;;;;;;;5.61;41.78;101493.86;87122;278;136798;-71
2024/03/11 06:42:45;;;;;;;4.00;3.30;;;;;;;5.18;42.24;101487.88;87129;268;23015;-71
2024/03/11 06:44:46;;;;;;;12.80;4.80;;;;;;;4.61;43.26;101494.90;86983;272;135992;-71
2024/03/11 06:46:49;;;;;;;9.70;6.20;;;;;;;4.00;43.94;101504.35;87106;268;24151;-68
2024/03/11 06:48:51;;;;;;;7.90;4.60;;;;;;;3.37;45.06;101513.99;87046;275;136252;-68
2024/03/11 06:50:53;;;;;;;7.90;4.60;;;;;;;2.71;46.33;101506.39;87153;267;24010;-69
2024/03/11 06:52:55;;;;;;;4.90;3.00;;;;;;;2.16;47.72;101509.50;87063;275;135892;-69
2024/03/11 06:54:57;;;;;;;4.00;2.50;;;;;;;1.72;48.70;101505.33;87147;266;22597;-72
2024/03/11 06:57:00;;;;;;;13.30;5.00;;;;;;;1.38;49.77;101506.46;86888;273;136064;-70
2024/03/11 06:59:03;;;;;;;8.10;3.50;;;;;;;1.11;51.15;101506.85;87389;271;22562;-68
2024/03/11 07:01:07;;;;;;;7.10;4.10;;;;;;;0.85;52.64;101496.86;86974;279;136486;-69
2024/03/11 07:03:09;;;;;;;8.00;3.90;;;;;;;0.65;53.59;101507.11;87160;276;22581;-70
2024/03/11 07:05:13;;;;;;;4.70;2.70;;;;;;;0.47;52.75;101519.55;87064;272;136626;-69
2024/03/11 07:07:15;;;;;;;8.00;3.60;;;;;;;0.32;53.18;101511.02;87229;270;22596;-69
2024/03/11 07:09:18;;;;;;;7.30;4.40;;;;;;;0.20;53.81;101510.48;87027;270;136083;-70
2024/03/11 07:11:21;;;;;;;3.90;3.40;;;;;;;0.16;54.20;101521.44;87080;280;23114;-70
2024/03/11 07:13:23;;;;;;;10.20;5.20;;;;;;;0.10;54.32;101509.52;86966;279;137049;-70
2024/03/11 07:15:25;;;;;;;7.80;4.00;;;;;;;0.05;54.53;101511.23;86987;279;25301;-70
2024/03/11 07:17:27;;;;;;;10.70;4.50;;;;;;;-0.01;54.95;101511.59;86953;271;137070;-69
2024/03/11 07:19:30;;;;;;;11.70;3.80;;;;;;;-0.05;54.71;101522.68;87238;272;22571;-71
2024/03/11 07:21:34;;;;;;;11.00;4.80;;;;;;;-0.05;55.03;101515.35;87114;279;136197;-71
2024/03/11 07:23:36;;;;;;;21.70;7.30;;;;;;;-0.02;54.82;101516.86;87255;275;22645;-71
2024/03/11 07:25:39;;;;;;;14.30;6.00;;;;;;;0.02;54.81;101517.89;87076;266;136373;-70
2024/03/11 07:27:42;;;;;;;16.20;6.30;;;;;;;0.03;55.16;101516.59;87171;279;22898;-70
2024/03/11 07:29:44;;;;;;;8.40;4.40;;;;;;;0.02;55.48;101507.75;87122;274;136509;-70
2024/03/11 07:31:46;;;;;;;6.80;4.00;;;;;;;0.04;55.25;101506.39;87351;267;22555;-72
2024/03/11 07:33:50;;;;;;;6.00;3.70;;;;;;;0.09;55.38;101510.85;87115;267;136733;-71
2024/03/11 07:35:53;;;;;;;7.10;3.20;;;;;;;0.09;54.06;101513.83;87493;271;22764;-70
2024/03/11 07:37:55;;;;;;;6.50;3.50;;;;;;;-0.02;54.10;101515.65;87880;266;135884;-69
2024/03/11 07:39:57;;;;;;;9.40;4.80;;;;;;;-0.03;53.96;101518.90;88005;276;22516;-69
2024/03/11 07:41:59;;;;;;;12.00;3.80;;;;;;;-0.03;54.08;101525.31;87984;278;135973;-72
2024/03/11 07:44:01;;;;;;;22.90;4.70;;;;;;;-0.07;54.35;101511.78;88019;267;24268;-71
2024/03/11 07:46:03;;;;;;;5.10;3.30;;;;;;;-0.09;54.90;101523.08;87505;266;22570;-72
2024/03/11 07:48:10;;;;;;;5.10;4.20;;;;;;;-0.09;54.23;101521.66;87278;270;136361;-71
2024/03/11 07:50:13;;;;;;;4.90;3.70;;;;;;;-0.05;53.28;101514.96;86753;261;872817;-71
2024/03/11 07:52:15;;;;;;;5.10;2.60;;;;;;;-0.05;52.81;101522.11;87653;270;136662;-69
2024/03/11 07:54:17;;;;;;;3.30;1.70;;;;;;;-0.04;52.61;101514.55;87286;279;22593;-68
2024/03/11 07:56:19;;;;;;;9.90;5.00;;;;;;;-0.02;51.97;101520.56;87303;268;137034;-72
2024/03/11 07:58:22;;;;;;;11.90;4.50;;;;;;;0.06;52.32;101526.39;87282;278;22564;-72
2024/03/11 08:00:29;;;;;;;4.60;2.80;;;;;;;0.14;52.41;101521.35;87271;266;136388;-71
2024/03/11 08:02:33;;;;;;;4.60;3.60;;;;;;;0.25;52.56;101520.04;87370;274;22588;-72
2024/03/11 08:04:35;;;;;;;3.90;2.60;;;;;;;0.34;51.44;101536.44;87121;270;135931;-70
2024/03/11 08:06:37;;;;;;;5.70;2.80;;;;;;;0.29;51.76;101531.46;87121;269;24155;-68
2024/03/11 08:08:39;;;;;;;4.90;2.60;;;;;;;0.26;52.47;101530.27;87116;274;137009;-73
2024/03/11 08:10:41;;;;;;;6.20;2.90;;;;;;;0.20;53.29;101533.06;87385;274;23973;-71
2024/03/11 08:12:47;;;;;;;;;;;;;;;0.11;53.03;101530.64;87131;274;137509;-73
2024/03/11 08:14:50;;;;;;;5.80;2.90;;;;;;;0.06;52.54;101527.98;87061;267;23931;-72
2024/03/11 08:16:52;;;;;;;4.40;3.70;;;;;;;0.02;52.37;101510.18;87156;277;136124;-71
2024/03/11 08:18:55;;;;;;;5.60;3.60;;;;;;;0.06;52.90;101516.58;87548;273;25339;-72
2024/03/11 08:20:57;;;;;;;6.30;3.70;;;;;;;0.16;53.36;101533.67;87145;267;136380;-72
2024/03/11 08:22:58;;;;;;;5.80;3.20;;;;;;;0.27;53.71;101531.80;87260;267;25295;-72
2024/03/11 08:25:02;;;;;;;5.10;2.90;;;;;;;0.36;52.71;101527.20;87151;271;137167;-70
2024/03/11 08:27:04;;;;;;;6.40;3.10;;;;;;;0.37;52.13;101537.27;87195;279;22579;-69
2024/03/11 08:29:09;;;;;;;4.00;3.10;;;;;;;0.34;51.72;101525.27;86979;273;135814;-70
2024/03/11 08:31:11;;;;;;;3.30;2.20;;;;;;;0.30;51.61;101516.38;90102;274;22435;-71
2024/03/11 08:33:15;;;;;;;4.70;2.80;;;;;;;0.33;52.03;101524.45;90034;264;135618;-71
2024/03/11 08:35:21;;;;;;;8.70;3.50;;;;;;;0.38;51.07;101523.57;90074;276;22391;-69
2024/03/11 08:37:23;;;;;;;5.00;4.10;;;;;;;0.43;51.00;101511.56;87597;272;135856;-72
2024/03/11 08:39:26;;;;;;;5.30;3.50;;;;;;;0.47;51.31;101505.05;87046;273;22654;-71
2024/03/11 08:41:28;;;;;;;4.30;3.40;;;;;;;0.54;51.34;101506.33;87217;270;135979;-71
2024/03/11 08:43:30;;;;;;;5.60;2.30;;;;;;;0.61;50.29;101519.95;87316;273;22571;-72
2024/03/11 08:45:33;;;;;;;12.10;5.90;;;;;;;0.55;49.01;101514.65;87161;276;138766;-70
2024/03/11 08:47:35;;;;;;;8.50;4.50;;;;;;;0.49;50.23;101515.94;87419;273;24026;-71
2024/03/11 08:49:40;;;;;;;5.30;2.70;;;;;;;0.50;50.42;101527.20;87147;275;135965;-71
2024/03/11 08:51:42;;;;;;;11.30;3.50;;;;;;;0.55;49.62;101520.98;87426;267;22843;-71
2024/03/11 08:53:44;;;;;;;3.20;2.20;;;;;;;0.61;49.63;101510.32;87185;277;136001;-69
2024/03/11 08:55:45;;;;;;;3.00;2.60;;;;;;;0.69;49.88;101523.66;87367;273;22639;-72
2024/03/11 08:57:51;;;;;;;3.40;2.70;;;;;;;0.77;49.47;101522.41;87161;269;135965;-71
2024/03/11 08:59:54;;;;;;;6.30;3.90;;;;;;;0.84;49.43;101524.30;87223;269;21547;-68
2024/03/11 09:01:57;;;;;;;6.70;4.20;;;;;;;0.85;49.84;101516.70;86989;276;137234;-71
2024/03/11 09:04:00;;;;;;;7.90;4.00;;;;;;;0.87;50.28;101516.00;87415;271;22584;-71
2024/03/11 09:06:02;;;;;;;7.00;4.10;;;;;;;0.93;50.35;101526.54;87341;267;135519;-71
2024/03/11 09:08:04;;;;;;;3.50;3.30;;;;;;;1.00;50.29;101519.45;87356;267;136370;-69
2024/03/11 09:10:09;;;;;;;5.60;3.30;;;;;;;1.08;50.00;101522.73;87498;267;24180;-71
2024/03/11 09:12:13;;;;;;;9.10;2.70;;;;;;;1.18;49.19;101520.76;87207;271;136429;-71
2024/03/11 09:14:14;;;;;;;3.60;2.80;;;;;;;1.27;48.28;101513.86;87369;278;22635;-71
2024/03/11 09:16:16;;;;;;;3.00;2.30;;;;;;;1.36;48.12;101523.39;87288;271;136502;-73
2024/03/11 09:18:19;;;;;;;3.00;2.20;;;;;;;1.41;47.13;101519.42;87257;270;22664;-72
2024/03/11 09:20:26;;;;;;;4.90;2.80;;;;;;;1.40;47.25;101507.45;87314;271;135890;-71
2024/03/11 09:22:29;;;;;;;5.40;2.30;;;;;;;1.42;46.61;101518.11;87300;267;22575;-68
2024/03/11 09:24:32;;;;;;;3.30;2.00;;;;;;;1.43;46.13;101516.15;87172;273;135806;-70
2024/03/11 09:26:35;;;;;;;3.30;2.80;;;;;;;1.40;46.10;101527.36;87222;271;25214;-71
2024/03/11 09:28:37;;;;;;;9.50;3.50;;;;;;;1.41;46.46;101521.71;87176;268;135826;-71
2024/03/11 09:30:41;;;;;;;3.60;1.90;;;;;;;1.45;46.59;101515.63;87361;268;25229;-71
2024/03/11 09:32:44;;;;;;;5.10;2.90;;;;;;;1.43;46.69;101511.40;87438;278;136157;-70
2024/03/11 09:34:46;;;;;;;6.70;2.90;;;;;;;1.36;46.92;101513.95;87793;270;22563;-70
2024/03/11 09:36:48;;;;;;;4.70;2.90;;;;;;;1.34;46.95;101509.20;87148;270;135861;-72
2024/03/11 09:38:50;;;;;;;4.40;3.10;;;;;;;1.28;46.56;101511.34;87078;280;24178;-72